sensor_id;sensor_type;location;lat;lon;timestamp;pressure;altitude;pressure_sealevel;temperature;humidity
60642;BME280;46837;52.446;-1.930;2023-05-01T00:00:09;100336.18;;;12.16;84.54
60642;BME280;46837;52.446;-1.930;2023-05-01T00:01:09;100334.93;;;12.14;84.69
60642;BME280;46837;52.446;-1.930;2023-05-01T00:02:09;100332.89;;;12.12;84.64
60642;BME280;46837;52.446;-1.930;2023-05-01T00:03:09;100335.97;;;12.14;84.52
60642;BME280;46837;52.446;-1.930;2023-05-01T00:04:09;100333.56;;;12.13;84.49
60642;BME280;46837;52.446;-1.930;2023-05-01T00:05:09;100329.73;;;12.14;84.46
60642;BME280;46837;52.446;-1.930;2023-05-01T00:06:09;100327.91;;;12.15;84.42
60642;BME280;46837;52.446;-1.930;2023-05-01T00:07:09;100328.73;;;12.15;84.29
60642;BME280;46837;52.446;-1.930;2023-05-01T00:08:09;100329.50;;;12.16;84.27
60642;BME280;46837;52.446;-1.930;2023-05-01T00:09:09;100329.22;;;12.15;84.29
60642;BME280;46837;52.446;-1.930;2023-05-01T00:10:09;100328.35;;;12.16;84.23
60642;BME280;46837;52.446;-1.930;2023-05-01T00:11:11;100330.87;;;12.09;84.26
60642;BME280;46837;52.446;-1.930;2023-05-01T00:12:09;100327.76;;;12.10;84.36
60642;BME280;46837;52.446;-1.930;2023-05-01T00:13:09;100326.27;;;12.12;84.33
60642;BME280;46837;52.446;-1.930;2023-05-01T00:14:09;100329.23;;;12.12;84.20
60642;BME280;46837;52.446;-1.930;2023-05-01T00:15:09;100327.04;;;12.09;84.23
60642;BME280;46837;52.446;-1.930;2023-05-01T00:16:12;100324.63;;;12.10;84.15
60642;BME280;46837;52.446;-1.930;2023-05-01T00:17:09;100324.52;;;12.08;84.08
60642;BME280;46837;52.446;-1.930;2023-05-01T00:18:09;100324.41;;;12.04;83.97
60642;BME280;46837;52.446;-1.930;2023-05-01T00:19:09;100326.33;;;12.02;84.06
60642;BME280;46837;52.446;-1.930;2023-05-01T00:20:09;100327.59;;;11.98;84.06
60642;BME280;46837;52.446;-1.930;2023-05-01T00:21:09;100329.07;;;11.91;84.19
60642;BME280;46837;52.446;-1.930;2023-05-01T00:22:09;100328.31;;;11.85;84.34
60642;BME280;46837;52.446;-1.930;2023-05-01T00:23:09;100327.71;;;11.85;84.31
60642;BME280;46837;52.446;-1.930;2023-05-01T00:24:09;100323.38;;;11.85;84.25
60642;BME280;46837;52.446;-1.930;2023-05-01T00:25:09;100320.37;;;11.88;84.20
60642;BME280;46837;52.446;-1.930;2023-05-01T00:26:09;100319.32;;;11.87;84.02
60642;BME280;46837;52.446;-1.930;2023-05-01T00:27:09;100317.52;;;11.84;83.96
60642;BME280;46837;52.446;-1.930;2023-05-01T00:28:09;100318.39;;;11.84;84.10
60642;BME280;46837;52.446;-1.930;2023-05-01T00:29:09;100317.30;;;11.84;83.98
60642;BME280;46837;52.446;-1.930;2023-05-01T00:30:09;100318.75;;;11.82;83.91
60642;BME280;46837;52.446;-1.930;2023-05-01T00:31:09;100319.78;;;11.83;83.90
60642;BME280;46837;52.446;-1.930;2023-05-01T00:32:09;100321.43;;;11.82;83.84
60642;BME280;46837;52.446;-1.930;2023-05-01T00:33:09;100322.13;;;11.80;83.80
60642;BME280;46837;52.446;-1.930;2023-05-01T00:34:09;100323.51;;;11.78;83.84
60642;BME280;46837;52.446;-1.930;2023-05-01T00:35:09;100322.46;;;11.77;83.81
60642;BME280;46837;52.446;-1.930;2023-05-01T00:36:09;100317.92;;;11.75;83.81
60642;BME280;46837;52.446;-1.930;2023-05-01T00:37:09;100318.30;;;11.74;83.77
60642;BME280;46837;52.446;-1.930;2023-05-01T00:38:09;100314.13;;;11.72;83.73
60642;BME280;46837;52.446;-1.930;2023-05-01T00:39:11;100317.91;;;11.70;83.75
60642;BME280;46837;52.446;-1.930;2023-05-01T00:40:09;100317.64;;;11.70;83.75
60642;BME280;46837;52.446;-1.930;2023-05-01T00:41:09;100318.24;;;11.69;83.53
60642;BME280;46837;52.446;-1.930;2023-05-01T00:42:09;100318.62;;;11.65;83.54
60642;BME280;46837;52.446;-1.930;2023-05-01T00:43:09;100317.47;;;11.66;83.62
60642;BME280;46837;52.446;-1.930;2023-05-01T00:44:09;100319.01;;;11.64;83.58
60642;BME280;46837;52.446;-1.930;2023-05-01T00:45:09;100318.24;;;11.61;83.66
60642;BME280;46837;52.446;-1.930;2023-05-01T00:46:09;100318.62;;;11.59;83.64
60642;BME280;46837;52.446;-1.930;2023-05-01T00:47:09;100317.73;;;11.58;83.58
60642;BME280;46837;52.446;-1.930;2023-05-01T00:48:09;100314.95;;;11.56;83.65
60642;BME280;46837;52.446;-1.930;2023-05-01T00:49:09;100310.85;;;11.55;83.55
60642;BME280;46837;52.446;-1.930;2023-05-01T00:50:09;100313.20;;;11.50;83.61
60642;BME280;46837;52.446;-1.930;2023-05-01T00:51:09;100309.62;;;11.48;83.74
60642;BME280;46837;52.446;-1.930;2023-05-01T00:52:09;100310.13;;;11.47;83.67
60642;BME280;46837;52.446;-1.930;2023-05-01T00:53:09;100317.28;;;11.48;83.65
60642;BME280;46837;52.446;-1.930;2023-05-01T00:54:09;100314.12;;;11.44;83.63
60642;BME280;46837;52.446;-1.930;2023-05-01T00:55:09;100313.95;;;11.43;83.83
60642;BME280;46837;52.446;-1.930;2023-05-01T00:56:09;100313.49;;;11.38;83.76
60642;BME280;46837;52.446;-1.930;2023-05-01T00:57:09;100316.68;;;11.39;83.91
60642;BME280;46837;52.446;-1.930;2023-05-01T00:58:09;100314.38;;;11.39;83.75
60642;BME280;46837;52.446;-1.930;2023-05-01T00:59:09;100313.28;;;11.37;83.69
60642;BME280;46837;52.446;-1.930;2023-05-01T01:00:09;100309.61;;;11.33;83.72
60642;BME280;46837;52.446;-1.930;2023-05-01T01:01:09;100313.20;;;11.30;83.70
60642;BME280;46837;52.446;-1.930;2023-05-01T01:02:09;100311.44;;;11.27;83.75
60642;BME280;46837;52.446;-1.930;2023-05-01T01:03:09;100314.59;;;11.30;83.90
60642;BME280;46837;52.446;-1.930;2023-05-01T01:04:09;100311.08;;;11.29;83.74
60642;BME280;46837;52.446;-1.930;2023-05-01T01:05:09;100309.22;;;11.30;83.75
60642;BME280;46837;52.446;-1.930;2023-05-01T01:06:20;100307.74;;;11.30;83.65
60642;BME280;46837;52.446;-1.930;2023-05-01T01:11:15;100298.47;;;11.21;83.47
60642;BME280;46837;52.446;-1.930;2023-05-01T01:13:13;100299.75;;;11.10;83.96
60642;BME280;46837;52.446;-1.930;2023-05-01T01:14:10;100298.18;;;11.11;84.02
60642;BME280;46837;52.446;-1.930;2023-05-01T01:15:34;100294.68;;;11.12;84.04
60642;BME280;46837;52.446;-1.930;2023-05-01T01:17:16;100290.14;;;11.14;84.05
60642;BME280;46837;52.446;-1.930;2023-05-01T01:20:17;100285.51;;;11.19;83.65
60642;BME280;46837;52.446;-1.930;2023-05-01T01:21:22;100280.30;;;11.23;83.46
60642;BME280;46837;52.446;-1.930;2023-05-01T01:22:11;100283.17;;;11.26;83.25
60642;BME280;46837;52.446;-1.930;2023-05-01T01:29:20;100268.31;;;11.40;82.52
60642;BME280;46837;52.446;-1.930;2023-05-01T01:31:16;100267.92;;;11.39;82.46
60642;BME280;46837;52.446;-1.930;2023-05-01T01:35:15;100272.09;;;11.43;82.55
60642;BME280;46837;52.446;-1.930;2023-05-01T01:36:14;100270.12;;;11.44;82.23
60642;BME280;46837;52.446;-1.930;2023-05-01T01:37:13;100268.26;;;11.40;82.11
60642;BME280;46837;52.446;-1.930;2023-05-01T01:38:16;100271.92;;;11.40;82.12
60642;BME280;46837;52.446;-1.930;2023-05-01T01:40:12;100270.15;;;11.35;82.21
60642;BME280;46837;52.446;-1.930;2023-05-01T01:42:09;100269.08;;;11.40;82.03
60642;BME280;46837;52.446;-1.930;2023-05-01T01:43:11;100267.59;;;11.42;82.14
60642;BME280;46837;52.446;-1.930;2023-05-01T01:44:18;100265.68;;;11.44;82.03
60642;BME280;46837;52.446;-1.930;2023-05-01T01:46:10;100265.62;;;11.49;81.59
60642;BME280;46837;52.446;-1.930;2023-05-01T01:47:11;100262.96;;;11.50;81.62
60642;BME280;46837;52.446;-1.930;2023-05-01T01:48:13;100264.97;;;11.46;81.45
60642;BME280;46837;52.446;-1.930;2023-05-01T01:49:12;100262.72;;;11.42;81.85
60642;BME280;46837;52.446;-1.930;2023-05-01T01:50:09;100260.38;;;11.46;81.97
60642;BME280;46837;52.446;-1.930;2023-05-01T01:51:10;100255.84;;;11.51;81.70
60642;BME280;46837;52.446;-1.930;2023-05-01T01:52:09;100260.49;;;11.50;81.60
60642;BME280;46837;52.446;-1.930;2023-05-01T01:53:09;100253.66;;;11.54;81.58
60642;BME280;46837;52.446;-1.930;2023-05-01T01:54:09;100254.15;;;11.54;81.53
60642;BME280;46837;52.446;-1.930;2023-05-01T01:55:10;100250.31;;;11.54;81.33
60642;BME280;46837;52.446;-1.930;2023-05-01T01:56:09;100252.33;;;11.53;81.26
60642;BME280;46837;52.446;-1.930;2023-05-01T01:57:10;100249.97;;;11.51;81.15
60642;BME280;46837;52.446;-1.930;2023-05-01T01:58:09;100248.12;;;11.53;81.07
60642;BME280;46837;52.446;-1.930;2023-05-01T01:59:09;100245.28;;;11.51;80.93
60642;BME280;46837;52.446;-1.930;2023-05-01T02:00:10;100240.79;;;11.50;80.98
60642;BME280;46837;52.446;-1.930;2023-05-01T02:01:09;100241.27;;;11.48;80.97
60642;BME280;46837;52.446;-1.930;2023-05-01T02:02:09;100238.64;;;11.48;80.85
60642;BME280;46837;52.446;-1.930;2023-05-01T02:03:09;100236.52;;;11.42;80.80
60642;BME280;46837;52.446;-1.930;2023-05-01T02:04:09;100238.59;;;11.35;80.97
60642;BME280;46837;52.446;-1.930;2023-05-01T02:05:10;100236.50;;;11.34;81.18
60642;BME280;46837;52.446;-1.930;2023-05-01T02:06:09;100236.84;;;11.33;81.20
60642;BME280;46837;52.446;-1.930;2023-05-01T02:07:09;100232.52;;;11.26;81.13
60642;BME280;46837;52.446;-1.930;2023-05-01T02:08:09;100235.02;;;11.25;81.31
60642;BME280;46837;52.446;-1.930;2023-05-01T02:09:09;100234.58;;;11.25;81.32
60642;BME280;46837;52.446;-1.930;2023-05-01T02:10:12;100233.82;;;11.16;81.30
60642;BME280;46837;52.446;-1.930;2023-05-01T02:11:09;100235.71;;;11.16;81.46
60642;BME280;46837;52.446;-1.930;2023-05-01T02:12:09;100232.43;;;11.14;81.57
60642;BME280;46837;52.446;-1.930;2023-05-01T02:13:09;100235.44;;;11.10;81.58
60642;BME280;46837;52.446;-1.930;2023-05-01T02:14:09;100236.54;;;11.09;81.65
60642;BME280;46837;52.446;-1.930;2023-05-01T02:15:09;100239.36;;;11.04;81.73
60642;BME280;46837;52.446;-1.930;2023-05-01T02:16:09;100240.13;;;11.06;81.91
60642;BME280;46837;52.446;-1.930;2023-05-01T02:17:09;100237.83;;;11.01;81.93
60642;BME280;46837;52.446;-1.930;2023-05-01T02:18:09;100237.23;;;11.04;81.98
60642;BME280;46837;52.446;-1.930;2023-05-01T02:19:09;100235.04;;;11.06;81.95
60642;BME280;46837;52.446;-1.930;2023-05-01T02:20:10;100232.93;;;11.05;81.96
60642;BME280;46837;52.446;-1.930;2023-05-01T02:21:09;100233.62;;;11.03;82.01
60642;BME280;46837;52.446;-1.930;2023-05-01T02:22:09;100231.55;;;11.05;81.95
60642;BME280;46837;52.446;-1.930;2023-05-01T02:23:09;100230.13;;;11.05;81.84
60642;BME280;46837;52.446;-1.930;2023-05-01T02:24:09;100233.24;;;11.06;81.77
60642;BME280;46837;52.446;-1.930;2023-05-01T02:25:12;100230.67;;;11.06;81.95
60642;BME280;46837;52.446;-1.930;2023-05-01T02:26:12;100230.18;;;11.06;81.92
60642;BME280;46837;52.446;-1.930;2023-05-01T02:27:12;100234.98;;;11.00;82.18
60642;BME280;46837;52.446;-1.930;2023-05-01T02:28:13;100230.55;;;10.98;82.16
60642;BME280;46837;52.446;-1.930;2023-05-01T02:29:09;100231.75;;;11.00;82.13
60642;BME280;46837;52.446;-1.930;2023-05-01T02:30:09;100226.46;;;11.01;81.99
60642;BME280;46837;52.446;-1.930;2023-05-01T02:31:09;100228.25;;;10.99;81.91
60642;BME280;46837;52.446;-1.930;2023-05-01T02:32:09;100228.59;;;10.98;81.98
60642;BME280;46837;52.446;-1.930;2023-05-01T02:33:09;100225.86;;;11.01;82.02
60642;BME280;46837;52.446;-1.930;2023-05-01T02:34:09;100225.36;;;11.02;81.87
60642;BME280;46837;52.446;-1.930;2023-05-01T02:35:09;100222.96;;;11.04;81.79
60642;BME280;46837;52.446;-1.930;2023-05-01T02:36:09;100225.75;;;11.02;81.81
60642;BME280;46837;52.446;-1.930;2023-05-01T02:37:10;100223.22;;;11.02;81.86
60642;BME280;46837;52.446;-1.930;2023-05-01T02:38:09;100220.45;;;11.01;81.93
60642;BME280;46837;52.446;-1.930;2023-05-01T02:39:09;100220.27;;;11.00;82.01
60642;BME280;46837;52.446;-1.930;2023-05-01T02:40:10;100220.55;;;10.97;82.05
60642;BME280;46837;52.446;-1.930;2023-05-01T02:41:09;100217.48;;;11.00;82.03
60642;BME280;46837;52.446;-1.930;2023-05-01T02:42:09;100219.72;;;10.97;82.03
60642;BME280;46837;52.446;-1.930;2023-05-01T02:43:10;100219.71;;;10.96;82.12
60642;BME280;46837;52.446;-1.930;2023-05-01T02:44:09;100221.84;;;10.93;82.14
60642;BME280;46837;52.446;-1.930;2023-05-01T02:45:09;100226.65;;;10.93;82.20
60642;BME280;46837;52.446;-1.930;2023-05-01T02:46:10;100222.33;;;10.95;82.20
60642;BME280;46837;52.446;-1.930;2023-05-01T02:47:09;100221.96;;;10.96;82.13
60642;BME280;46837;52.446;-1.930;2023-05-01T02:48:09;100217.59;;;10.99;82.06
60642;BME280;46837;52.446;-1.930;2023-05-01T02:49:09;100217.70;;;11.02;81.91
60642;BME280;46837;52.446;-1.930;2023-05-01T02:50:09;100217.06;;;11.04;81.80
60642;BME280;46837;52.446;-1.930;2023-05-01T02:51:09;100218.25;;;11.03;81.89
60642;BME280;46837;52.446;-1.930;2023-05-01T02:52:09;100219.18;;;11.03;81.84
60642;BME280;46837;52.446;-1.930;2023-05-01T02:53:09;100220.61;;;11.04;81.93
60642;BME280;46837;52.446;-1.930;2023-05-01T02:54:09;100220.16;;;11.00;82.07
60642;BME280;46837;52.446;-1.930;2023-05-01T02:55:09;100218.74;;;10.97;82.16
60642;BME280;46837;52.446;-1.930;2023-05-01T02:56:09;100219.28;;;11.00;82.26
60642;BME280;46837;52.446;-1.930;2023-05-01T02:57:09;100216.00;;;10.99;82.21
60642;BME280;46837;52.446;-1.930;2023-05-01T02:58:18;100213.66;;;10.98;82.24
60642;BME280;46837;52.446;-1.930;2023-05-01T02:59:09;100213.82;;;11.01;82.18
60642;BME280;46837;52.446;-1.930;2023-05-01T03:00:11;100209.40;;;10.98;82.14
60642;BME280;46837;52.446;-1.930;2023-05-01T03:01:09;100210.10;;;10.98;82.16
60642;BME280;46837;52.446;-1.930;2023-05-01T03:02:09;100209.83;;;10.98;82.16
60642;BME280;46837;52.446;-1.930;2023-05-01T03:03:09;100210.75;;;10.96;82.23
60642;BME280;46837;52.446;-1.930;2023-05-01T03:04:09;100210.80;;;10.93;82.28
60642;BME280;46837;52.446;-1.930;2023-05-01T03:05:09;100211.91;;;10.95;82.37
60642;BME280;46837;52.446;-1.930;2023-05-01T03:06:09;100211.35;;;10.94;82.30
60642;BME280;46837;52.446;-1.930;2023-05-01T03:07:09;100208.89;;;10.94;82.25
60642;BME280;46837;52.446;-1.930;2023-05-01T03:08:09;100212.22;;;10.93;82.30
60642;BME280;46837;52.446;-1.930;2023-05-01T03:09:09;100211.61;;;10.95;82.35
60642;BME280;46837;52.446;-1.930;2023-05-01T03:10:09;100211.84;;;10.96;82.32
60642;BME280;46837;52.446;-1.930;2023-05-01T03:11:09;100209.49;;;10.96;82.26
60642;BME280;46837;52.446;-1.930;2023-05-01T03:12:09;100210.81;;;10.98;82.19
60642;BME280;46837;52.446;-1.930;2023-05-01T03:13:09;100210.80;;;10.96;82.17
60642;BME280;46837;52.446;-1.930;2023-05-01T03:14:09;100210.10;;;10.98;82.19
60642;BME280;46837;52.446;-1.930;2023-05-01T03:15:09;100206.98;;;10.97;82.17
60642;BME280;46837;52.446;-1.930;2023-05-01T03:16:09;100208.73;;;10.97;82.19
60642;BME280;46837;52.446;-1.930;2023-05-01T03:17:09;100207.19;;;10.96;82.16
60642;BME280;46837;52.446;-1.930;2023-05-01T03:18:09;100207.30;;;10.94;82.17
60642;BME280;46837;52.446;-1.930;2023-05-01T03:19:09;100205.60;;;10.90;82.33
60642;BME280;46837;52.446;-1.930;2023-05-01T03:20:12;100210.40;;;10.92;82.40
60642;BME280;46837;52.446;-1.930;2023-05-01T03:21:09;100211.88;;;10.89;82.39
60642;BME280;46837;52.446;-1.930;2023-05-01T03:22:09;100207.72;;;10.89;82.45
60642;BME280;46837;52.446;-1.930;2023-05-01T03:23:11;100208.76;;;10.86;82.57
60642;BME280;46837;52.446;-1.930;2023-05-01T03:24:09;100208.26;;;10.85;82.65
60642;BME280;46837;52.446;-1.930;2023-05-01T03:25:09;100211.18;;;10.87;82.53
60642;BME280;46837;52.446;-1.930;2023-05-01T03:26:09;100211.39;;;10.87;82.43
60642;BME280;46837;52.446;-1.930;2023-05-01T03:27:09;100210.47;;;10.88;82.39
60642;BME280;46837;52.446;-1.930;2023-05-01T03:28:09;100208.64;;;10.88;82.41
60642;BME280;46837;52.446;-1.930;2023-05-01T03:29:09;100203.25;;;10.88;82.33
60642;BME280;46837;52.446;-1.930;2023-05-01T03:30:09;100210.72;;;10.88;82.34
60642;BME280;46837;52.446;-1.930;2023-05-01T03:31:09;100208.65;;;10.89;82.35
60642;BME280;46837;52.446;-1.930;2023-05-01T03:32:09;100208.88;;;10.84;82.29
60642;BME280;46837;52.446;-1.930;2023-05-01T03:33:09;100206.30;;;10.86;82.42
60642;BME280;46837;52.446;-1.930;2023-05-01T03:34:09;100209.54;;;10.87;82.34
60642;BME280;46837;52.446;-1.930;2023-05-01T03:35:09;100212.98;;;10.87;82.37
60642;BME280;46837;52.446;-1.930;2023-05-01T03:36:09;100212.54;;;10.89;82.31
60642;BME280;46837;52.446;-1.930;2023-05-01T03:37:09;100211.28;;;10.84;82.28
60642;BME280;46837;52.446;-1.930;2023-05-01T03:38:09;100212.27;;;10.84;82.40
60642;BME280;46837;52.446;-1.930;2023-05-01T03:39:10;100212.31;;;10.83;82.30
60642;BME280;46837;52.446;-1.930;2023-05-01T03:40:09;100208.59;;;10.82;82.32
60642;BME280;46837;52.446;-1.930;2023-05-01T03:41:09;100211.10;;;10.83;82.26
60642;BME280;46837;52.446;-1.930;2023-05-01T03:42:09;100212.57;;;10.82;82.16
60642;BME280;46837;52.446;-1.930;2023-05-01T03:43:09;100213.01;;;10.82;82.20
60642;BME280;46837;52.446;-1.930;2023-05-01T03:44:09;100207.87;;;10.77;82.25
60642;BME280;46837;52.446;-1.930;2023-05-01T03:45:09;100206.10;;;10.72;82.42
60642;BME280;46837;52.446;-1.930;2023-05-01T03:46:09;100206.65;;;10.72;82.50
60642;BME280;46837;52.446;-1.930;2023-05-01T03:47:09;100206.10;;;10.70;82.58
60642;BME280;46837;52.446;-1.930;2023-05-01T03:48:09;100208.87;;;10.68;82.69
60642;BME280;46837;52.446;-1.930;2023-05-01T03:49:09;100207.62;;;10.68;82.76
60642;BME280;46837;52.446;-1.930;2023-05-01T03:50:09;100207.13;;;10.69;82.68
60642;BME280;46837;52.446;-1.930;2023-05-01T03:51:09;100213.14;;;10.71;82.73
60642;BME280;46837;52.446;-1.930;2023-05-01T03:52:09;100212.33;;;10.72;82.63
60642;BME280;46837;52.446;-1.930;2023-05-01T03:53:09;100217.37;;;10.73;82.61
60642;BME280;46837;52.446;-1.930;2023-05-01T03:54:09;100211.07;;;10.74;82.56
60642;BME280;46837;52.446;-1.930;2023-05-01T03:55:09;100215.39;;;10.74;82.53
60642;BME280;46837;52.446;-1.930;2023-05-01T03:56:09;100215.45;;;10.75;82.54
60642;BME280;46837;52.446;-1.930;2023-05-01T03:57:09;100215.00;;;10.74;82.56
60642;BME280;46837;52.446;-1.930;2023-05-01T03:58:09;100213.48;;;10.75;82.54
60642;BME280;46837;52.446;-1.930;2023-05-01T03:59:09;100213.00;;;10.73;82.57
60642;BME280;46837;52.446;-1.930;2023-05-01T04:00:09;100212.50;;;10.73;82.54
60642;BME280;46837;52.446;-1.930;2023-05-01T04:01:09;100215.18;;;10.75;82.57
60642;BME280;46837;52.446;-1.930;2023-05-01T04:02:09;100214.03;;;10.72;82.60
60642;BME280;46837;52.446;-1.930;2023-05-01T04:03:09;100213.64;;;10.74;82.57
60642;BME280;46837;52.446;-1.930;2023-05-01T04:04:09;100214.47;;;10.76;82.50
60642;BME280;46837;52.446;-1.930;2023-05-01T04:05:09;100210.47;;;10.72;82.54
60642;BME280;46837;52.446;-1.930;2023-05-01T04:06:09;100209.49;;;10.72;82.61
60642;BME280;46837;52.446;-1.930;2023-05-01T04:07:09;100208.93;;;10.71;82.54
60642;BME280;46837;52.446;-1.930;2023-05-01T04:08:09;100212.88;;;10.72;82.56
60642;BME280;46837;52.446;-1.930;2023-05-01T04:09:09;100213.70;;;10.73;82.45
60642;BME280;46837;52.446;-1.930;2023-05-01T04:10:09;100212.00;;;10.74;82.44
60642;BME280;46837;52.446;-1.930;2023-05-01T04:11:09;100212.24;;;10.77;82.42
60642;BME280;46837;52.446;-1.930;2023-05-01T04:12:09;100216.23;;;10.79;82.40
60642;BME280;46837;52.446;-1.930;2023-05-01T04:13:09;100210.02;;;10.81;82.32
60642;BME280;46837;52.446;-1.930;2023-05-01T04:14:09;100211.05;;;10.81;82.32
60642;BME280;46837;52.446;-1.930;2023-05-01T04:15:09;100210.32;;;10.81;82.30
60642;BME280;46837;52.446;-1.930;2023-05-01T04:16:09;100211.21;;;10.82;82.31
60642;BME280;46837;52.446;-1.930;2023-05-01T04:17:09;100214.71;;;10.85;82.27
60642;BME280;46837;52.446;-1.930;2023-05-01T04:18:09;100208.76;;;10.86;82.31
60642;BME280;46837;52.446;-1.930;2023-05-01T04:19:09;100211.94;;;10.84;82.41
60642;BME280;46837;52.446;-1.930;2023-05-01T04:20:09;100209.37;;;10.89;82.36
60642;BME280;46837;52.446;-1.930;2023-05-01T04:21:09;100212.00;;;10.93;82.21
60642;BME280;46837;52.446;-1.930;2023-05-01T04:22:09;100212.21;;;10.92;82.16
60642;BME280;46837;52.446;-1.930;2023-05-01T04:23:09;100210.57;;;10.92;82.22
60642;BME280;46837;52.446;-1.930;2023-05-01T04:24:09;100210.08;;;10.92;82.24
60642;BME280;46837;52.446;-1.930;2023-05-01T04:25:09;100210.58;;;10.96;82.25
60642;BME280;46837;52.446;-1.930;2023-05-01T04:26:09;100211.04;;;10.98;82.14
60642;BME280;46837;52.446;-1.930;2023-05-01T04:27:09;100213.00;;;11.00;82.15
60642;BME280;46837;52.446;-1.930;2023-05-01T04:28:10;100208.84;;;11.02;82.09
60642;BME280;46837;52.446;-1.930;2023-05-01T04:29:09;100208.67;;;11.02;81.99
60642;BME280;46837;52.446;-1.930;2023-05-01T04:30:09;100208.68;;;11.01;82.16
60642;BME280;46837;52.446;-1.930;2023-05-01T04:31:09;100209.94;;;11.03;82.09
60642;BME280;46837;52.446;-1.930;2023-05-01T04:32:09;100210.70;;;11.03;82.09
60642;BME280;46837;52.446;-1.930;2023-05-01T04:33:13;100211.58;;;11.06;82.06
60642;BME280;46837;52.446;-1.930;2023-05-01T04:34:09;100214.93;;;11.04;82.01
60642;BME280;46837;52.446;-1.930;2023-05-01T04:35:09;100212.02;;;11.04;82.04
60642;BME280;46837;52.446;-1.930;2023-05-01T04:36:09;100208.57;;;11.06;82.14
60642;BME280;46837;52.446;-1.930;2023-05-01T04:37:09;100208.97;;;11.09;82.04
60642;BME280;46837;52.446;-1.930;2023-05-01T04:38:09;100208.85;;;11.06;82.03
60642;BME280;46837;52.446;-1.930;2023-05-01T04:39:09;100208.21;;;11.08;82.11
60642;BME280;46837;52.446;-1.930;2023-05-01T04:40:09;100207.76;;;11.07;82.06
60642;BME280;46837;52.446;-1.930;2023-05-01T04:41:09;100207.37;;;11.06;82.17
60642;BME280;46837;52.446;-1.930;2023-05-01T04:42:09;100208.52;;;11.07;82.24
60642;BME280;46837;52.446;-1.930;2023-05-01T04:43:09;100213.83;;;11.07;82.16
60642;BME280;46837;52.446;-1.930;2023-05-01T04:44:09;100215.58;;;11.09;82.13
60642;BME280;46837;52.446;-1.930;2023-05-01T04:45:09;100215.58;;;11.10;82.10
60642;BME280;46837;52.446;-1.930;2023-05-01T04:46:09;100215.86;;;11.11;82.12
60642;BME280;46837;52.446;-1.930;2023-05-01T04:47:09;100216.69;;;11.12;82.15
60642;BME280;46837;52.446;-1.930;2023-05-01T04:48:09;100220.50;;;11.10;82.30
60642;BME280;46837;52.446;-1.930;2023-05-01T04:49:09;100217.77;;;11.13;82.35
60642;BME280;46837;52.446;-1.930;2023-05-01T04:50:09;100217.07;;;11.15;82.20
60642;BME280;46837;52.446;-1.930;2023-05-01T04:51:09;100219.54;;;11.16;82.17
60642;BME280;46837;52.446;-1.930;2023-05-01T04:52:09;100217.18;;;11.17;82.20
60642;BME280;46837;52.446;-1.930;2023-05-01T04:53:09;100216.75;;;11.15;82.34
60642;BME280;46837;52.446;-1.930;2023-05-01T04:54:09;100215.53;;;11.16;82.48
60642;BME280;46837;52.446;-1.930;2023-05-01T04:55:09;100217.56;;;11.12;82.49
60642;BME280;46837;52.446;-1.930;2023-05-01T04:56:09;100216.97;;;11.16;82.44
60642;BME280;46837;52.446;-1.930;2023-05-01T04:57:09;100221.01;;;11.18;82.28
60642;BME280;46837;52.446;-1.930;2023-05-01T04:58:09;100221.46;;;11.19;82.29
60642;BME280;46837;52.446;-1.930;2023-05-01T04:59:09;100224.09;;;11.19;82.26
60642;BME280;46837;52.446;-1.930;2023-05-01T05:00:09;100222.98;;;11.20;82.25
60642;BME280;46837;52.446;-1.930;2023-05-01T05:01:09;100223.76;;;11.19;82.41
60642;BME280;46837;52.446;-1.930;2023-05-01T05:02:09;100227.36;;;11.20;82.36
60642;BME280;46837;52.446;-1.930;2023-05-01T05:03:09;100226.00;;;11.22;82.20
60642;BME280;46837;52.446;-1.930;2023-05-01T05:04:09;100226.54;;;11.21;82.23
60642;BME280;46837;52.446;-1.930;2023-05-01T05:05:09;100229.65;;;11.20;82.30
60642;BME280;46837;52.446;-1.930;2023-05-01T05:06:09;100229.71;;;11.22;82.30
60642;BME280;46837;52.446;-1.930;2023-05-01T05:07:09;100227.79;;;11.20;82.51
60642;BME280;46837;52.446;-1.930;2023-05-01T05:08:09;100229.93;;;11.24;82.38
60642;BME280;46837;52.446;-1.930;2023-05-01T05:09:09;100232.23;;;11.27;82.25
60642;BME280;46837;52.446;-1.930;2023-05-01T05:10:09;100232.41;;;11.26;82.21
60642;BME280;46837;52.446;-1.930;2023-05-01T05:11:09;100233.88;;;11.29;82.21
60642;BME280;46837;52.446;-1.930;2023-05-01T05:12:09;100236.45;;;11.31;82.16
60642;BME280;46837;52.446;-1.930;2023-05-01T05:13:09;100237.50;;;11.32;82.01
60642;BME280;46837;52.446;-1.930;2023-05-01T05:14:09;100237.65;;;11.34;82.03
60642;BME280;46837;52.446;-1.930;2023-05-01T05:15:09;100238.75;;;11.34;82.04
60642;BME280;46837;52.446;-1.930;2023-05-01T05:16:09;100237.84;;;11.37;81.94
60642;BME280;46837;52.446;-1.930;2023-05-01T05:17:09;100233.51;;;11.37;81.88
60642;BME280;46837;52.446;-1.930;2023-05-01T05:18:09;100233.18;;;11.40;81.87
60642;BME280;46837;52.446;-1.930;2023-05-01T05:19:09;100232.30;;;11.39;81.80
60642;BME280;46837;52.446;-1.930;2023-05-01T05:20:09;100234.27;;;11.41;81.84
60642;BME280;46837;52.446;-1.930;2023-05-01T05:21:09;100232.96;;;11.40;81.92
60642;BME280;46837;52.446;-1.930;2023-05-01T05:22:09;100233.23;;;11.42;81.90
60642;BME280;46837;52.446;-1.930;2023-05-01T05:23:09;100235.80;;;11.42;81.88
60642;BME280;46837;52.446;-1.930;2023-05-01T05:24:09;100233.68;;;11.43;81.99
60642;BME280;46837;52.446;-1.930;2023-05-01T05:25:09;100235.54;;;11.43;81.94
60642;BME280;46837;52.446;-1.930;2023-05-01T05:26:09;100240.30;;;11.46;81.98
60642;BME280;46837;52.446;-1.930;2023-05-01T05:27:09;100237.41;;;11.47;81.95
60642;BME280;46837;52.446;-1.930;2023-05-01T05:28:09;100237.29;;;11.46;81.92
60642;BME280;46837;52.446;-1.930;2023-05-01T05:29:09;100234.93;;;11.49;81.96
60642;BME280;46837;52.446;-1.930;2023-05-01T05:30:09;100237.50;;;11.45;82.15